Time;durP1;ratioP1;P1;durP2;ratioP2;P2;SDS_P1;SDS_P2;PMS_P1;PMS_P2;Temp;Humidity;BMP_temperature;BMP_pressure;BME280_temperature;BME280_humidity;BME280_pressure;Samples;Min_cycle;Max_cycle;Signal;HPM_P1;HPM_P2
2021/12/25 00:01:34;;;;;;;;;46.75;40.75;;;;;;;;5096477;27;45453;-50
2021/12/25 00:03:59;;;;;;;;;47.00;42.00;;;;;;;;5096107;27;45266;-49
2021/12/25 00:06:25;;;;;;;;;48.75;41.75;;;;;;;;5096505;27;45222;-52
2021/12/25 00:08:51;;;;;;;;;43.00;38.75;;;;;;;;5096859;27;45297;-51
2021/12/25 00:11:16;;;;;;;;;44.75;40.25;;;;;;;;5096210;27;45539;-51
2021/12/25 00:13:42;;;;;;;;;48.50;42.00;;;;;;;;5096395;27;46172;-50
2021/12/25 00:16:08;;;;;;;;;45.75;38.50;;;;;;;;5096113;27;45443;-51
2021/12/25 00:18:34;;;;;;;;;48.25;42.00;;;;;;;;5095296;27;45403;-51
2021/12/25 00:20:59;;;;;;;;;45.50;41.75;;;;;;;;5096763;27;45412;-49
2021/12/25 00:23:24;;;;;;;;;38.50;37.25;;;;;;;;5096135;27;46030;-48
2021/12/25 00:26:14;;;;;;;;;46.00;38.50;;;;;;;;5098367;27;45314;-47
2021/12/25 00:36:01;;;;;;;;;40.75;37.50;;;;;;;;5099189;27;45324;-48
2021/12/25 00:38:26;;;;;;;;;39.00;35.50;;;;;;;;5099130;27;45235;-50
2021/12/25 00:40:51;;;;;;;;;47.25;39.25;;;;;;;;5099872;27;45287;-52
2021/12/25 00:43:17;;;;;;;;;42.00;37.50;;;;;;;;5099560;27;46366;-52
2021/12/25 00:45:42;;;;;;;;;41.75;37.75;;;;;;;;5099532;27;45194;-51
2021/12/25 00:48:07;;;;;;;;;40.75;37.25;;;;;;;;5099167;27;45201;-52
2021/12/25 00:50:32;;;;;;;;;36.25;35.75;;;;;;;;5099570;27;45241;-50
2021/12/25 00:52:57;;;;;;;;;36.50;34.25;;;;;;;;5099482;27;45341;-52
2021/12/25 00:55:23;;;;;;;;;34.50;34.50;;;;;;;;5099346;27;45234;-49
2021/12/25 00:57:48;;;;;;;;;36.50;33.25;;;;;;;;5099678;27;45245;-51
2021/12/25 01:00:13;;;;;;;;;37.50;32.50;;;;;;;;5098714;27;45505;-49
2021/12/25 01:02:41;;;;;;;;;37.75;34.50;;;;;;;;5099135;27;45397;-51
2021/12/25 01:05:08;;;;;;;;;31.75;31.75;;;;;;;;5099370;27;45409;-50
2021/12/25 01:07:33;;;;;;;;;32.50;30.00;;;;;;;;5099386;27;45357;-50
2021/12/25 01:10:01;;;;;;;;;28.75;28.75;;;;;;;;5097480;27;45298;-48
2021/12/25 01:12:29;;;;;;;;;29.50;28.75;;;;;;;;5098975;27;46223;-52
2021/12/25 01:14:58;;;;;;;;;37.75;35.50;;;;;;;;5097804;27;45342;-49
2021/12/25 01:48:47;;;;;;;;;34.75;31.00;;;;;;;;5078180;28;45397;-49
2021/12/25 01:51:12;;;;;;;;;33.00;28.00;;;;;;;;5078186;28;45378;-49
2021/12/25 01:53:38;;;;;;;;;31.50;28.50;;;;;;;;5078113;27;46745;-49
2021/12/25 01:56:04;;;;;;;;;26.25;26.00;;;;;;;;5077846;27;45405;-49
2021/12/25 01:58:29;;;;;;;;;29.25;29.25;;;;;;;;5076883;28;45465;-51
2021/12/25 02:00:56;;;;;;;;;36.00;31.75;;;;;;;;5077941;28;45713;-49
2021/12/25 02:03:23;;;;;;;;;38.25;32.00;;;;;;;;5078068;27;45373;-51
2021/12/25 02:05:49;;;;;;;;;34.50;30.75;;;;;;;;5077448;27;45310;-50
2021/12/25 02:08:14;;;;;;;;;24.00;22.00;;;;;;;;5077770;27;45339;-50
2021/12/25 02:10:40;;;;;;;;;35.50;28.50;;;;;;;;5077708;27;45442;-50
2021/12/25 02:13:05;;;;;;;;;26.00;26.00;;;;;;;;5077968;27;45339;-49
2021/12/25 02:15:31;;;;;;;;;23.33;23.00;;;;;;;;5077786;27;45424;-48
2021/12/25 02:20:31;;;;;;;;;23.67;23.00;;;;;;;;5077847;28;45482;-49
2021/12/25 02:23:02;;;;;;;;;25.25;24.75;;;;;;;;5076357;28;47143;-50
2021/12/25 02:25:28;;;;;;;;;23.33;23.33;;;;;;;;5077526;27;45461;-53
2021/12/25 02:27:53;;;;;;;;;22.00;22.00;;;;;;;;5077278;27;45310;-51
2021/12/25 02:30:18;;;;;;;;;25.00;21.67;;;;;;;;5077690;28;45367;-51
2021/12/25 02:32:44;;;;;;;;;25.67;22.33;;;;;;;;5077458;28;46188;-50
2021/12/25 02:35:10;;;;;;;;;23.00;21.00;;;;;;;;5077545;27;45377;-51
2021/12/25 02:37:35;;;;;;;;;20.50;20.50;;;;;;;;5077693;27;45342;-50
2021/12/25 02:40:01;;;;;;;;;22.67;20.33;;;;;;;;5076984;28;45215;-48
2021/12/25 02:42:26;;;;;;;;;26.00;24.00;;;;;;;;5077312;27;46197;-51
2021/12/25 02:44:51;;;;;;;;;22.25;22.25;;;;;;;;5077408;28;45229;-49
2021/12/25 02:47:20;;;;;;;;;25.25;21.50;;;;;;;;5077389;28;45183;-50
2021/12/25 02:49:46;;;;;;;;;28.50;24.75;;;;;;;;5076975;27;45235;-49
2021/12/25 02:52:11;;;;;;;;;30.00;28.00;;;;;;;;5077008;27;45485;-50
2021/12/25 02:54:36;;;;;;;;;32.00;31.75;;;;;;;;5077070;28;45527;-53
2021/12/25 02:57:02;;;;;;;;;36.75;32.25;;;;;;;;5077469;28;45390;-50
2021/12/25 02:59:27;;;;;;;;;30.50;29.50;;;;;;;;5077266;28;45315;-51
2021/12/25 03:01:52;;;;;;;;;29.25;26.25;;;;;;;;5076558;28;45411;-52
2021/12/25 03:04:17;;;;;;;;;35.75;32.00;;;;;;;;5076986;28;45468;-54
2021/12/25 03:06:43;;;;;;;;;35.00;29.50;;;;;;;;5077270;28;45434;-50
2021/12/25 03:09:08;;;;;;;;;29.75;29.00;;;;;;;;5077137;28;45397;-47
2021/12/25 03:11:33;;;;;;;;;32.75;31.00;;;;;;;;5076034;28;45474;-49
2021/12/25 03:14:11;;;;;;;;;30.00;27.50;;;;;;;;5076962;27;45479;-51
2021/12/25 03:16:36;;;;;;;;;31.00;28.50;;;;;;;;5077093;27;45223;-50
2021/12/25 03:19:03;;;;;;;;;31.75;28.50;;;;;;;;5077180;28;45202;-52
2021/12/25 03:21:28;;;;;;;;;29.75;29.50;;;;;;;;5075856;27;46267;-52
2021/12/25 03:23:53;;;;;;;;;31.00;28.67;;;;;;;;5075931;28;45223;-50
2021/12/25 03:26:18;;;;;;;;;30.25;28.25;;;;;;;;5077044;27;45370;-49
2021/12/25 03:28:45;;;;;;;;;37.75;35.50;;;;;;;;5076820;28;45345;-49
2021/12/25 03:31:16;;;;;;;;;36.50;32.50;;;;;;;;5076784;27;46121;-49
2021/12/25 03:33:42;;;;;;;;;30.75;26.75;;;;;;;;5076103;28;45260;-51
2021/12/25 03:36:07;;;;;;;;;40.50;35.00;;;;;;;;5076800;27;45295;-53
2021/12/25 03:38:33;;;;;;;;;31.00;29.75;;;;;;;;5076574;28;45321;-51
2021/12/25 03:41:00;;;;;;;;;36.25;31.75;;;;;;;;5075263;28;47267;-49
2021/12/25 03:43:25;;;;;;;;;32.00;27.75;;;;;;;;5076573;27;45243;-50
2021/12/25 03:45:50;;;;;;;;;27.00;27.00;;;;;;;;5075965;27;45366;-49
2021/12/25 03:58:47;;;;;;;;;29.50;29.00;;;;;;;;5076519;27;45385;-48
2021/12/25 04:04:17;;;;;;;;;30.33;26.00;;;;;;;;5080038;28;45302;-52
2021/12/25 04:06:50;;;;;;;;;27.00;26.50;;;;;;;;5079582;28;45267;-50
2021/12/25 04:09:30;;;;;;;;;30.25;26.75;;;;;;;;5080223;27;45270;-49
2021/12/25 04:11:56;;;;;;;;;27.00;25.00;;;;;;;;5079584;28;46061;-49
2021/12/25 04:14:21;;;;;;;;;29.75;26.00;;;;;;;;5079891;28;45272;-50
2021/12/25 04:16:47;;;;;;;;;30.25;26.50;;;;;;;;5079703;27;45762;-51
2021/12/25 04:19:12;;;;;;;;;30.75;28.50;;;;;;;;5079610;28;45251;-50
2021/12/25 04:21:46;;;;;;;;;28.67;25.67;;;;;;;;5079902;28;46058;-49
2021/12/25 04:24:11;;;;;;;;;25.00;21.67;;;;;;;;5079707;27;45284;-50
2021/12/25 04:26:39;;;;;;;;;22.33;21.67;;;;;;;;5079827;28;45517;-53
2021/12/25 04:29:19;;;;;;;;;18.67;17.67;;;;;;;;5079271;27;45299;-52
2021/12/25 05:01:47;;;;;;;;;24.50;24.50;;;;;;;;5078680;27;45171;-51
2021/12/25 05:04:19;;;;;;;;;28.00;25.75;;;;;;;;5078960;27;46260;-53
2021/12/25 05:06:44;;;;;;;;;21.67;21.00;;;;;;;;5079172;27;45195;-51
2021/12/25 05:09:09;;;;;;;;;27.00;23.00;;;;;;;;5079160;28;45230;-51
2021/12/25 05:11:35;;;;;;;;;24.33;21.33;;;;;;;;5078618;28;45402;-50
2021/12/25 05:14:00;;;;;;;;;22.75;22.75;;;;;;;;5078427;28;45286;-49
2021/12/25 05:16:26;;;;;;;;;25.67;22.67;;;;;;;;5079279;28;45260;-52
2021/12/25 05:18:51;;;;;;;;;28.33;26.33;;;;;;;;5079190;27;45359;-51
2021/12/25 05:21:18;;;;;;;;;26.00;22.67;;;;;;;;5078863;27;45571;-49
2021/12/25 05:23:43;;;;;;;;;21.00;19.50;;;;;;;;5078048;28;46156;-51
2021/12/25 05:26:08;;;;;;;;;29.00;25.67;;;;;;;;5078812;28;45400;-49
2021/12/25 05:28:45;;;;;;;;;26.00;24.50;;;;;;;;5079035;27;45516;-49
2021/12/25 05:31:12;;;;;;;;;22.33;21.33;;;;;;;;5078974;28;45355;-50
2021/12/25 05:33:37;;;;;;;;;26.75;25.25;;;;;;;;5078544;27;46389;-48
2021/12/25 05:36:04;;;;;;;;;25.75;22.75;;;;;;;;5077968;28;45314;-50
2021/12/25 05:38:29;;;;;;;;;22.33;22.33;;;;;;;;5078782;27;45227;-49
2021/12/25 05:40:54;;;;;;;;;26.00;23.33;;;;;;;;5077372;28;45367;-53
2021/12/25 05:43:19;;;;;;;;;23.33;20.67;;;;;;;;5078532;28;45658;-51
2021/12/25 05:45:45;;;;;;;;;22.00;21.00;;;;;;;;5077905;28;45291;-52
2021/12/25 05:48:10;;;;;;;;;21.67;21.67;;;;;;;;5078539;27;45563;-51
2021/12/25 05:50:36;;;;;;;;;26.33;24.67;;;;;;;;5078525;27;45283;-48
2021/12/25 05:53:01;;;;;;;;;24.50;24.50;;;;;;;;5078309;28;46229;-50
2021/12/25 05:55:26;;;;;;;;;27.00;24.75;;;;;;;;5078437;28;45508;-50
2021/12/25 05:57:52;;;;;;;;;27.00;25.33;;;;;;;;5077906;28;45439;-49
2021/12/25 06:00:18;;;;;;;;;21.67;20.33;;;;;;;;5078207;27;45454;-49
2021/12/25 06:02:44;;;;;;;;;25.00;24.00;;;;;;;;5078064;27;46304;-52
2021/12/25 06:05:09;;;;;;;;;20.75;20.75;;;;;;;;5078104;27;45226;-49
2021/12/25 06:07:35;;;;;;;;;29.75;26.25;;;;;;;;5077680;27;45684;-49
2021/12/25 06:10:00;;;;;;;;;22.00;22.00;;;;;;;;5078213;28;45523;-50
2021/12/25 06:12:26;;;;;;;;;26.00;26.00;;;;;;;;5077653;28;45449;-51
2021/12/25 06:14:53;;;;;;;;;22.50;22.00;;;;;;;;5078216;27;45346;-49
2021/12/25 06:17:18;;;;;;;;;28.25;25.00;;;;;;;;5078111;28;45306;-49
2021/12/25 06:19:44;;;;;;;;;28.50;25.75;;;;;;;;5077352;28;45531;-52
2021/12/25 06:22:09;;;;;;;;;27.50;27.50;;;;;;;;5077476;27;45628;-50
2021/12/25 06:24:34;;;;;;;;;25.50;23.25;;;;;;;;5077185;28;45189;-52
2021/12/25 06:27:00;;;;;;;;;27.00;25.75;;;;;;;;5077991;27;45370;-51
2021/12/25 06:29:25;;;;;;;;;17.75;16.25;;;;;;;;5077358;28;45149;-49
2021/12/25 06:31:52;;;;;;;;;31.00;27.75;;;;;;;;5077880;28;46291;-52
2021/12/25 06:34:17;;;;;;;;;31.00;28.25;;;;;;;;5077792;27;45386;-48
2021/12/25 06:36:43;;;;;;;;;27.50;26.50;;;;;;;;5077662;28;45316;-52
2021/12/25 06:39:13;;;;;;;;;30.25;27.25;;;;;;;;5077577;27;45522;-51
2021/12/25 06:41:38;;;;;;;;;25.75;24.50;;;;;;;;5077009;27;45465;-51
2021/12/25 06:44:03;;;;;;;;;28.50;26.00;;;;;;;;5077439;28;45429;-48
2021/12/25 06:46:29;;;;;;;;;30.50;27.25;;;;;;;;5077623;27;45291;-53
2021/12/25 06:48:55;;;;;;;;;28.00;25.50;;;;;;;;5077510;28;45299;-48
2021/12/25 06:51:20;;;;;;;;;25.00;21.75;;;;;;;;5075547;27;47596;-52
2021/12/25 06:53:46;;;;;;;;;23.00;22.00;;;;;;;;5077246;28;45401;-52
2021/12/25 06:56:11;;;;;;;;;22.00;20.00;;;;;;;;5077558;28;45256;-52
2021/12/25 06:58:36;;;;;;;;;27.75;26.50;;;;;;;;5077609;28;45365;-51
2021/12/25 07:01:02;;;;;;;;;27.00;24.75;;;;;;;;5077166;27;46271;-51
2021/12/25 07:03:28;;;;;;;;;22.67;22.67;;;;;;;;5076647;27;45336;-51
2021/12/25 07:05:53;;;;;;;;;31.00;28.25;;;;;;;;5077428;28;45302;-52
2021/12/25 07:08:18;;;;;;;;;25.00;25.00;;;;;;;;5077524;28;45488;-52
2021/12/25 07:10:43;;;;;;;;;26.25;25.00;;;;;;;;5076809;28;46365;-50
2021/12/25 07:13:15;;;;;;;;;29.00;25.33;;;;;;;;5076559;28;45322;-49
2021/12/25 07:15:41;;;;;;;;;26.00;23.00;;;;;;;;5093016;27;45247;-52
2021/12/25 07:18:06;;;;;;;;;25.00;25.00;;;;;;;;5077114;28;45207;-48
2021/12/25 07:20:31;;;;;;;;;32.75;29.00;;;;;;;;5076863;28;45571;-52
2021/12/25 07:22:56;;;;;;;;;28.00;25.75;;;;;;;;5076762;28;45283;-51
2021/12/25 07:25:22;;;;;;;;;26.75;22.75;;;;;;;;5076641;28;45337;-52
2021/12/25 07:27:47;;;;;;;;;29.67;27.33;;;;;;;;5076908;28;45405;-51
2021/12/25 07:30:13;;;;;;;;;28.00;28.00;;;;;;;;5076598;28;46367;-49
2021/12/25 07:32:38;;;;;;;;;27.75;25.75;;;;;;;;5076815;28;45362;-53
2021/12/25 07:35:04;;;;;;;;;25.50;23.25;;;;;;;;5076508;28;45423;-51
2021/12/25 07:37:29;;;;;;;;;29.67;25.33;;;;;;;;5076687;28;45556;-50
2021/12/25 07:39:54;;;;;;;;;26.50;24.00;;;;;;;;5076513;28;46101;-49
2021/12/25 07:42:19;;;;;;;;;31.25;27.50;;;;;;;;5076688;28;45337;-51
2021/12/25 07:44:46;;;;;;;;;27.75;23.75;;;;;;;;5076669;28;45356;-52
2021/12/25 07:47:11;;;;;;;;;32.00;29.00;;;;;;;;5076293;27;45622;-51
2021/12/25 07:49:37;;;;;;;;;35.00;30.50;;;;;;;;5076369;28;45287;-50
2021/12/25 07:52:02;;;;;;;;;33.00;31.25;;;;;;;;5076717;27;45345;-50
2021/12/25 07:54:28;;;;;;;;;33.75;31.50;;;;;;;;5076651;27;45426;-51
2021/12/25 07:56:54;;;;;;;;;33.50;31.75;;;;;;;;5076525;28;45332;-49
2021/12/25 07:59:20;;;;;;;;;28.00;25.75;;;;;;;;5075961;27;46009;-53
2021/12/25 08:01:45;;;;;;;;;29.75;27.25;;;;;;;;5076596;27;45275;-51
2021/12/25 08:04:10;;;;;;;;;28.50;26.00;;;;;;;;5076497;28;45222;-49
2021/12/25 08:06:36;;;;;;;;;30.75;28.25;;;;;;;;5076571;28;45372;-49
2021/12/25 08:09:03;;;;;;;;;32.67;27.00;;;;;;;;5075732;28;46468;-53
2021/12/25 08:11:30;;;;;;;;;39.25;30.75;;;;;;;;5076199;27;45264;-54
2021/12/25 08:13:55;;;;;;;;;28.50;27.75;;;;;;;;5076538;27;45342;-49
2021/12/25 08:16:20;;;;;;;;;27.25;26.75;;;;;;;;5076340;28;45282;-47
2021/12/25 08:18:46;;;;;;;;;27.75;25.25;;;;;;;;5076079;27;45352;-49
2021/12/25 08:21:11;;;;;;;;;29.25;29.25;;;;;;;;5075992;28;45275;-49
2021/12/25 08:23:36;;;;;;;;;30.50;27.25;;;;;;;;5076208;28;45289;-49
2021/12/25 08:26:02;;;;;;;;;26.33;25.33;;;;;;;;5076282;28;45283;-50
2021/12/25 08:28:28;;;;;;;;;28.33;25.33;;;;;;;;5076098;27;46243;-49
2021/12/25 08:30:53;;;;;;;;;29.00;25.75;;;;;;;;5073977;28;45429;-51
2021/12/25 08:33:18;;;;;;;;;23.33;23.33;;;;;;;;5076163;28;45437;-52
2021/12/25 08:35:44;;;;;;;;;30.75;30.75;;;;;;;;5076022;27;45583;-51
2021/12/25 08:38:11;;;;;;;;;31.50;28.25;;;;;;;;5075873;28;45404;-50
2021/12/25 08:40:37;;;;;;;;;31.25;28.50;;;;;;;;5075902;27;45579;-49
2021/12/25 08:43:04;;;;;;;;;28.25;28.00;;;;;;;;5074971;27;45471;-49
2021/12/25 08:48:06;;;;;;;;;30.75;26.50;;;;;;;;5079109;27;45379;-50
2021/12/25 08:50:32;;;;;;;;;32.00;28.00;;;;;;;;5079225;27;45333;-51
2021/12/25 08:52:57;;;;;;;;;30.00;30.00;;;;;;;;5078800;28;45284;-53
2021/12/25 08:55:22;;;;;;;;;24.00;24.00;;;;;;;;5079300;28;45668;-48
2021/12/25 08:57:48;;;;;;;;;24.33;24.00;;;;;;;;5079198;28;45371;-53
2021/12/25 09:00:13;;;;;;;;;28.25;27.50;;;;;;;;5079015;27;45334;-52
2021/12/25 09:02:39;;;;;;;;;30.00;28.25;;;;;;;;5079313;27;45401;-50
2021/12/25 09:05:04;;;;;;;;;32.00;26.67;;;;;;;;5078773;28;45556;-53
2021/12/25 09:07:29;;;;;;;;;26.00;26.00;;;;;;;;5079129;27;46416;-50
2021/12/25 09:09:54;;;;;;;;;24.67;23.67;;;;;;;;5077742;28;45759;-52
2021/12/25 09:12:21;;;;;;;;;27.00;27.00;;;;;;;;5079068;28;45372;-50
2021/12/25 09:14:47;;;;;;;;;30.00;28.67;;;;;;;;5078521;27;45542;-53
2021/12/25 09:17:13;;;;;;;;;29.25;28.00;;;;;;;;5078862;27;45347;-53
2021/12/25 09:19:38;;;;;;;;;26.67;26.67;;;;;;;;5078642;27;45312;-53
2021/12/25 09:22:04;;;;;;;;;28.25;24.50;;;;;;;;5079095;27;45378;-50
2021/12/25 09:24:29;;;;;;;;;32.00;28.67;;;;;;;;5078754;27;45291;-50
2021/12/25 09:26:54;;;;;;;;;28.67;27.33;;;;;;;;5078458;28;46443;-53
2021/12/25 09:29:19;;;;;;;;;26.75;26.00;;;;;;;;5078766;28;45297;-51
2021/12/25 09:31:45;;;;;;;;;25.33;25.00;;;;;;;;5078880;27;45389;-51
2021/12/25 09:34:10;;;;;;;;;28.67;23.33;;;;;;;;5078773;28;45425;-51
2021/12/25 09:36:35;;;;;;;;;31.75;26.75;;;;;;;;5077921;28;45297;-51
2021/12/25 09:39:01;;;;;;;;;25.33;21.67;;;;;;;;5078583;28;45316;-50
2021/12/25 09:41:26;;;;;;;;;23.67;21.67;;;;;;;;5078675;28;45226;-54
2021/12/25 09:43:52;;;;;;;;;26.00;25.00;;;;;;;;5078464;28;45192;-50
2021/12/25 09:46:18;;;;;;;;;25.33;23.67;;;;;;;;5078492;27;46642;-49
2021/12/25 09:48:43;;;;;;;;;25.67;24.00;;;;;;;;5077955;28;45259;-49
2021/12/25 09:51:08;;;;;;;;;23.00;23.00;;;;;;;;5078581;28;45763;-52
2021/12/25 09:53:34;;;;;;;;;27.67;24.33;;;;;;;;5078627;27;45512;-51
2021/12/25 09:55:59;;;;;;;;;23.33;21.00;;;;;;;;5078490;28;45192;-51
2021/12/25 09:58:24;;;;;;;;;21.33;19.33;;;;;;;;5076713;28;45215;-50
2021/12/25 10:00:53;;;;;;;;;22.33;19.33;;;;;;;;5078410;27;45231;-52
2021/12/25 10:03:19;;;;;;;;;22.00;18.33;;;;;;;;5078286;27;45409;-50
2021/12/25 10:05:45;;;;;;;;;22.33;22.00;;;;;;;;5078093;27;45388;-53
2021/12/25 10:08:11;;;;;;;;;24.33;23.33;;;;;;;;5078286;27;45451;-51
2021/12/25 10:10:36;;;;;;;;;21.67;21.33;;;;;;;;5077144;27;45463;-53
2021/12/25 10:13:02;;;;;;;;;19.00;19.00;;;;;;;;5078104;28;45348;-52
2021/12/25 10:15:27;;;;;;;;;25.33;22.67;;;;;;;;5077947;27;46321;-53
2021/12/25 10:17:54;;;;;;;;;24.33;24.00;;;;;;;;5077909;28;45320;-52
2021/12/25 10:20:21;;;;;;;;;20.00;17.00;;;;;;;;5077453;27;45355;-51
2021/12/25 10:23:10;;;;;;;;;25.50;23.50;;;;;;;;5077725;28;45371;-49
2021/12/25 10:25:47;;;;;;;;;23.33;22.00;;;;;;;;5077584;27;46351;-51
2021/12/25 10:28:13;;;;;;;;;23.67;22.00;;;;;;;;5077595;27;45453;-50
2021/12/25 10:30:46;;;;;;;;;22.67;21.00;;;;;;;;5077885;27;45340;-49
2021/12/25 10:33:30;;;;;;;;;23.67;21.00;;;;;;;;5077447;27;45315;-51
2021/12/25 10:35:57;;;;;;;;;19.67;19.33;;;;;;;;5077545;28;46166;-50
2021/12/25 10:38:24;;;;;;;;;24.67;22.67;;;;;;;;5077501;27;45239;-53
2021/12/25 10:41:06;;;;;;;;;17.33;14.00;;;;;;;;5077562;27;45279;-49
2021/12/25 10:43:35;;;;;;;;;21.67;21.67;;;;;;;;5077280;27;45571;-50
2021/12/25 10:46:01;;;;;;;;;21.00;21.00;;;;;;;;5092819;27;46413;-49
2021/12/25 10:48:30;;;;;;;;;21.00;20.67;;;;;;;;5076996;27;45421;-52
2021/12/25 10:50:56;;;;;;;;;25.67;22.33;;;;;;;;5077589;27;45474;-51
2021/12/25 10:53:42;;;;;;;;;24.00;22.67;;;;;;;;5076773;28;45260;-50
2021/12/25 10:56:09;;;;;;;;;23.33;21.33;;;;;;;;5077398;27;45362;-49
2021/12/25 10:58:35;;;;;;;;;23.00;21.33;;;;;;;;5075457;28;45419;-49
2021/12/25 11:01:00;;;;;;;;;29.00;26.33;;;;;;;;5077086;27;45348;-52
2021/12/25 11:03:27;;;;;;;;;27.67;22.67;;;;;;;;5076020;28;45451;-52
2021/12/25 11:05:53;;;;;;;;;26.33;24.00;;;;;;;;5076308;28;45406;-52
2021/12/25 11:08:21;;;;;;;;;34.67;30.33;;;;;;;;5076866;28;45236;-49
2021/12/25 11:10:48;;;;;;;;;31.50;30.25;;;;;;;;5076737;28;45249;-49
2021/12/25 11:13:18;;;;;;;;;37.25;34.00;;;;;;;;5076878;28;45396;-51
2021/12/25 11:15:44;;;;;;;;;37.25;31.50;;;;;;;;5076127;27;46437;-49
2021/12/25 11:18:10;;;;;;;;;31.00;30.00;;;;;;;;5076700;28;45326;-51
2021/12/25 11:20:37;;;;;;;;;36.50;33.25;;;;;;;;5077032;28;45362;-49
2021/12/25 11:23:04;;;;;;;;;33.00;30.75;;;;;;;;5076855;27;45239;-51
2021/12/25 11:25:30;;;;;;;;;33.50;33.50;;;;;;;;5076632;27;45505;-48
2021/12/25 11:27:56;;;;;;;;;35.75;31.75;;;;;;;;5076359;28;45226;-48
2021/12/25 11:30:24;;;;;;;;;35.75;34.00;;;;;;;;5076974;27;45213;-50
2021/12/25 11:32:49;;;;;;;;;43.75;35.50;;;;;;;;5076800;27;45377;-51
2021/12/25 11:35:16;;;;;;;;;39.00;35.75;;;;;;;;5076538;28;45952;-50
2021/12/25 11:37:41;;;;;;;;;37.75;33.75;;;;;;;;5076120;27;45430;-51
2021/12/25 11:40:08;;;;;;;;;40.00;35.00;;;;;;;;5076687;27;45492;-49
2021/12/25 11:42:34;;;;;;;;;34.75;34.25;;;;;;;;5076815;27;45314;-50
2021/12/25 11:45:09;;;;;;;;;32.00;30.67;;;;;;;;5076456;28;45389;-51
2021/12/25 11:47:42;;;;;;;;;31.33;31.33;;;;;;;;5075546;27;45361;-49
2021/12/25 11:50:18;;;;;;;;;32.00;30.50;;;;;;;;5075964;27;45358;-50
2021/12/25 11:52:51;;;;;;;;;34.33;32.33;;;;;;;;5076428;27;45624;-52
2021/12/25 11:56:17;;;;;;;;;35.00;32.00;;;;;;;;5076161;27;46254;-50
2021/12/25 11:58:39;;;;;;;;;35.00;29.33;;;;;;;;5074642;27;45310;-52
2021/12/25 12:01:16;;;;;;;;;33.25;32.00;;;;;;;;5067988;27;45358;-52
2021/12/25 12:03:44;;;;;;;;;31.67;30.33;;;;;;;;5076442;28;45640;-53
2021/12/25 12:06:10;;;;;;;;;35.67;33.67;;;;;;;;5076084;27;45943;-49
2021/12/25 12:08:53;;;;;;;;;29.67;29.33;;;;;;;;5075990;28;45277;-54
2021/12/25 12:11:20;;;;;;;;;31.67;28.00;;;;;;;;5075419;28;45414;-53
2021/12/25 12:13:46;;;;;;;;;28.50;28.50;;;;;;;;5076284;27;45535;-53
2021/12/25 12:16:11;;;;;;;;;35.00;32.67;;;;;;;;5076083;28;45315;-53
2021/12/25 12:18:38;;;;;;;;;36.33;32.00;;;;;;;;5076060;28;45420;-52
2021/12/25 12:21:13;;;;;;;;;35.33;32.00;;;;;;;;5076781;27;45472;-50
2021/12/25 12:26:13;;;;;;;;;28.00;28.00;;;;;;;;5079507;27;45350;-49
2021/12/25 12:28:42;;;;;;;;;28.67;27.67;;;;;;;;5079360;27;45469;-51
2021/12/25 12:31:07;;;;;;;;;31.50;29.50;;;;;;;;5078413;28;45430;-53
2021/12/25 12:33:33;;;;;;;;;34.33;31.67;;;;;;;;5079199;28;45379;-53
2021/12/25 12:35:59;;;;;;;;;32.00;30.75;;;;;;;;5079488;27;45967;-52
2021/12/25 12:38:25;;;;;;;;;37.67;32.33;;;;;;;;5079507;28;45243;-52
2021/12/25 12:41:10;;;;;;;;;39.75;36.00;;;;;;;;5079233;27;45380;-50
2021/12/25 12:43:50;;;;;;;;;32.33;28.67;;;;;;;;5078606;27;45316;-51
2021/12/25 12:46:15;;;;;;;;;35.75;34.00;;;;;;;;5079261;28;46547;-48
2021/12/25 12:49:00;;;;;;;;;36.75;34.00;;;;;;;;5079148;28;45425;-53
2021/12/25 12:51:25;;;;;;;;;36.00;32.00;;;;;;;;5079703;27;45417;-52
2021/12/25 12:53:51;;;;;;;;;35.50;31.25;;;;;;;;5079121;27;45536;-49
2021/12/25 12:56:21;;;;;;;;;38.50;35.25;;;;;;;;5077168;28;46618;-50
2021/12/25 12:58:51;;;;;;;;;30.33;28.67;;;;;;;;5078984;28;45382;-52
2021/12/25 13:01:16;;;;;;;;;29.67;29.67;;;;;;;;5079144;27;45301;-53
2021/12/25 13:03:41;;;;;;;;;31.75;29.75;;;;;;;;5079092;28;45322;-49
2021/12/25 13:06:10;;;;;;;;;30.33;29.67;;;;;;;;5078475;28;45428;-50
2021/12/25 13:08:36;;;;;;;;;25.33;23.33;;;;;;;;5079008;27;45465;-51
2021/12/25 13:11:11;;;;;;;;;30.33;30.33;;;;;;;;5078822;28;45458;-53
2021/12/25 13:13:40;;;;;;;;;30.50;30.50;;;;;;;;5078992;27;45368;-50
2021/12/25 13:16:07;;;;;;;;;31.67;29.00;;;;;;;;5078258;27;46608;-48
2021/12/25 13:18:34;;;;;;;;;35.67;31.67;;;;;;;;5078624;27;45238;-50
2021/12/25 13:21:00;;;;;;;;;36.33;34.67;;;;;;;;5078876;27;45283;-52
2021/12/25 13:23:27;;;;;;;;;34.50;32.00;;;;;;;;5078738;27;45387;-51
2021/12/25 13:25:54;;;;;;;;;35.67;31.67;;;;;;;;5078681;27;46680;-51
2021/12/25 13:28:20;;;;;;;;;29.67;29.33;;;;;;;;5078164;27;45430;-48
2021/12/25 13:30:49;;;;;;;;;30.67;30.67;;;;;;;;5078688;27;45379;-49
2021/12/25 13:33:16;;;;;;;;;31.33;29.33;;;;;;;;5078479;28;45361;-49
2021/12/25 13:35:42;;;;;;;;;30.00;28.67;;;;;;;;5078363;27;45369;-49
2021/12/25 13:38:08;;;;;;;;;30.67;29.00;;;;;;;;5077966;27;45378;-51
2021/12/25 13:40:34;;;;;;;;;30.67;30.67;;;;;;;;5078679;27;45263;-52
2021/12/25 13:43:08;;;;;;;;;30.33;29.00;;;;;;;;5078668;27;45308;-54
2021/12/25 13:45:33;;;;;;;;;31.67;29.67;;;;;;;;5078478;27;45329;-53
2021/12/25 13:47:59;;;;;;;;;37.33;34.33;;;;;;;;5078588;27;45278;-52
2021/12/25 13:50:24;;;;;;;;;31.00;29.33;;;;;;;;5076604;28;45300;-51
2021/12/25 13:52:53;;;;;;;;;29.33;26.67;;;;;;;;5078424;28;45487;-49
2021/12/25 13:55:18;;;;;;;;;23.67;22.67;;;;;;;;5078432;27;45319;-51
2021/12/25 13:57:46;;;;;;;;;26.50;26.50;;;;;;;;5078410;28;45240;-48
2021/12/25 14:00:11;;;;;;;;;31.67;28.33;;;;;;;;5077826;27;45320;-51
2021/12/25 14:02:37;;;;;;;;;27.67;25.67;;;;;;;;5078039;28;45221;-48
2021/12/25 14:05:05;;;;;;;;;30.00;24.33;;;;;;;;5078097;27;45360;-49
2021/12/25 14:07:30;;;;;;;;;28.67;27.00;;;;;;;;5078183;27;45337;-51
2021/12/25 14:10:00;;;;;;;;;27.33;25.67;;;;;;;;5078190;27;45340;-52
2021/12/25 14:12:26;;;;;;;;;33.00;31.33;;;;;;;;5077411;27;45627;-49
2021/12/25 14:14:52;;;;;;;;;27.33;27.33;;;;;;;;5076434;28;46927;-50
2021/12/25 14:17:18;;;;;;;;;33.00;31.67;;;;;;;;5078003;27;45349;-49
2021/12/25 14:19:43;;;;;;;;;30.67;28.00;;;;;;;;5078087;27;45371;-50
2021/12/25 14:22:08;;;;;;;;;29.00;25.67;;;;;;;;5077498;28;45365;-50
2021/12/25 14:24:44;;;;;;;;;36.00;29.00;;;;;;;;5077468;28;46101;-51
2021/12/25 14:27:11;;;;;;;;;29.00;29.00;;;;;;;;5077916;27;45316;-48
2021/12/25 14:29:36;;;;;;;;;31.67;27.33;;;;;;;;5077703;28;45443;-48
2021/12/25 14:32:01;;;;;;;;;26.67;24.00;;;;;;;;5077681;28;45611;-51
2021/12/25 14:34:27;;;;;;;;;34.67;31.00;;;;;;;;5076848;28;46517;-49
2021/12/25 14:36:53;;;;;;;;;32.33;31.67;;;;;;;;5075880;28;45478;-50
2021/12/25 14:39:19;;;;;;;;;34.67;32.67;;;;;;;;5077344;28;45373;-49
2021/12/25 14:41:44;;;;;;;;;29.67;28.67;;;;;;;;5077819;27;45389;-51
2021/12/25 14:44:14;;;;;;;;;35.25;34.50;;;;;;;;5075962;27;46146;-52
2021/12/25 14:46:39;;;;;;;;;32.33;30.33;;;;;;;;5077530;28;45482;-49
2021/12/25 14:49:05;;;;;;;;;29.33;28.00;;;;;;;;5077377;27;45340;-51
2021/12/25 14:51:33;;;;;;;;;35.50;33.50;;;;;;;;5077599;28;45313;-52
2021/12/25 14:53:59;;;;;;;;;33.75;26.00;;;;;;;;5077365;27;45566;-51
2021/12/25 14:56:27;;;;;;;;;32.50;30.75;;;;;;;;5076426;27;45231;-49
2021/12/25 14:58:55;;;;;;;;;44.75;37.75;;;;;;;;5077561;27;45460;-50
2021/12/25 15:01:25;;;;;;;;;30.75;30.50;;;;;;;;5077108;27;45314;-53
2021/12/25 15:04:12;;;;;;;;;37.25;35.00;;;;;;;;5076962;28;45962;-53
2021/12/25 15:06:41;;;;;;;;;34.75;33.00;;;;;;;;5076556;28;45234;-49
2021/12/25 15:09:11;;;;;;;;;32.25;30.50;;;;;;;;5077180;27;45271;-52
2021/12/25 15:11:41;;;;;;;;;36.75;34.25;;;;;;;;5076246;27;45601;-52
2021/12/25 15:14:08;;;;;;;;;38.25;34.25;;;;;;;;5076790;27;45389;-51
2021/12/25 15:16:38;;;;;;;;;35.75;32.50;;;;;;;;5077032;27;45361;-52
2021/12/25 15:19:04;;;;;;;;;36.50;35.25;;;;;;;;5076537;27;45337;-51
2021/12/25 15:21:29;;;;;;;;;25.67;24.67;;;;;;;;5077098;27;45543;-52
2021/12/25 15:24:27;;;;;;;;;26.25;25.00;;;;;;;;5076589;28;46192;-52
2021/12/25 15:26:56;;;;;;;;;23.67;20.67;;;;;;;;5042580;27;45345;-52
2021/12/25 15:29:29;;;;;;;;;37.25;32.00;;;;;;;;5076339;27;45389;-53
2021/12/25 15:31:59;;;;;;;;;42.25;36.00;;;;;;;;5076730;27;45297;-52
2021/12/25 15:34:24;;;;;;;;;43.00;38.00;;;;;;;;5076667;27;45512;-50
2021/12/25 15:36:51;;;;;;;;;41.00;38.25;;;;;;;;5076459;28;45461;-53
2021/12/25 15:39:20;;;;;;;;;43.50;37.75;;;;;;;;5076243;27;45306;-52
2021/12/25 15:41:46;;;;;;;;;46.25;37.75;;;;;;;;5076653;27;45159;-50
2021/12/25 15:44:12;;;;;;;;;29.25;28.50;;;;;;;;5076363;27;46422;-51
2021/12/25 15:46:37;;;;;;;;;42.25;36.75;;;;;;;;5076329;27;45477;-52